โตเกียว, ประเทศญี่ปุ่น

09:45 PM JST วัน กันยายน 02, 2015 (GMT +0900)
Tokyo (Haneda) International | | Change Station
CLOSE
Current Station
Airport
Location: Tokyo,
Elevation: 26 ft
Nearby Weather Stations

Elev 26 ft 35.55 °N, 139.78 °E | Updated 15 minutes ago

Partly Cloudy
มีเมฆคลุมเป็นส่วนๆ
81 ฟาเรนไฮน์
Feels Like 85 ฟาเรนไฮน์
N
10
ลม ความผันแปร ลม from ทางทิศใต้และทิศตะวันตกเฉียงใต้

วันนี้
High -- | Low -- ฟาเรนไฮน์
--% Chance of Precip.
Yesterday
High -- | Low -- ฟาเรนไฮน์
Precip. -- นิ้ว
5:13 AM 6:07 PM
ข้างแรม, 80% visible
ความดัน 29.83 นิ้ว
ทัศนวิสัย 6.2 ไมล์
เมฆ Few 2000 ft
ดัชนีความร้อน 85 ฟาเรนไฮน์
อุณหภูมิที่อากาศอาจจับตัวเป็นหยาดน้ำค้าง 73 ฟาเรนไฮน์
ความชื้น 79%
Rainfall 0.00 นิ้ว
Snow Depth Not available.
UV 0 out of 12
Pollen Not available.
Air Quality Not available.
Flu Activity Not available.
METAR RJTT 021230Z 21009KT 9999 FEW020 SCT/// 27/23 Q1010 BECMG 27006KT RMK 1CU020 A2984
ความดัน 29.83 นิ้ว
ทัศนวิสัย 6.2 ไมล์
เมฆ Few 2000 ft
ดัชนีความร้อน 85 ฟาเรนไฮน์
อุณหภูมิที่อากาศอาจจับตัวเป็นหยาดน้ำค้าง 73 ฟาเรนไฮน์
ความชื้น 79%
Rainfall 0.00 นิ้ว
Snow Depth Not available.
UV 0 out of 12
Pollen Not available.
Air Quality Not available.
Flu Activity Not available.
METAR RJTT 021230Z 21009KT 9999 FEW020 SCT/// 27/23 Q1010 BECMG 27006KT RMK 1CU020 A2984

10-Day Weather Forecast

×

Almanac

ดาราศาสตร์

Sep. 02, 2015 Rise Set
Actual Time
Civil Twilight
Nautical Twilight
Astronomical Twilight
Moon
Length Of Visible Light
ความยาวของวัน
Tomorrow will be .
, % of the Moon is Illuminated

Today's Extremes

Country Highs Country Lows

Community

WunderPhotos

Upload Photos

1,851,738 photos uploaded!

WunderBlogs® & News

Nearby

Air Quality

  Air Quality AQ Index Pollutant
Not available.

Snow Depth

Station Depth Elevation

Earthquake Activity

City Distance Mag. Time & Date
Minimum magnitude displayed is 2.5.

Coastal Water Temperatures

สถานที่ อุณหภูมิ

Stations

Nearby Weather Stations

Station Location Temp ลมหนาว อุณหภูมิที่อากาศอาจจับตัวเป็นหยาดน้ำค้าง ความชื้น ลม Precip. Elev ปรับปรุงล่าสุด Type